Islamorada, Florida
Current Conditions -  °F | °C
As of 8:53 AM on Friday 19 Dec 2014 (Local Time) from KMTH Reporting Station
Clear Clear  
Wind Chill: 68°   Ceiling: Unl
Heat Index: 68°   Visibility: 10mi
Dew Point: 61°   Wind: 9mph
Humidity: 78%   Direction: 40°NE
Pressure: 30.1"   Gusts: NA
Location:  24.93°N, 80.63°W
Report Text: KMTH 191353Z AUTO 04008KT 10SM CLR 20/16 A3010 RMK AO2 SLP193 T02000161
Loading
Personal Weather Stations






























Interactive Weather Map New forecast layout! Learn more

10-Day Weather Forecast

Advertisements
Track Severe Weather on mobile